createdAt,value
2018-03-01T00:00:54.796Z,26.70
2018-03-01T00:03:23.178Z,27.60
2018-03-01T00:05:51.780Z,24.97
2018-03-01T00:08:20.560Z,25.83
2018-03-01T00:10:48.976Z,26.07
2018-03-01T00:13:17.682Z,25.83
2018-03-01T00:15:46.479Z,23.37
2018-03-01T00:18:14.872Z,24.13
2018-03-01T00:20:43.378Z,25.67
2018-03-01T00:23:11.777Z,28.70
2018-03-01T00:25:41.186Z,24.03
2018-03-01T00:28:10.581Z,25.17
2018-03-01T00:30:39.772Z,25.13
2018-03-01T00:33:08.164Z,20.70
2018-03-01T00:35:37.388Z,23.43
2018-03-01T00:38:05.881Z,25.03
2018-03-01T00:40:34.338Z,28.67
2018-03-01T00:43:02.944Z,26.10
2018-03-01T00:45:31.295Z,25.93
2018-03-01T00:47:59.685Z,23.23
2018-03-01T00:50:28.486Z,21.33
2018-03-01T00:52:56.883Z,25.17
2018-03-01T00:55:25.267Z,23.13
2018-03-01T00:57:53.931Z,23.03
2018-03-01T01:00:22.303Z,29.50
2018-03-01T01:02:50.704Z,19.07
2018-03-01T01:05:19.059Z,24.80
2018-03-01T01:07:47.439Z,23.00
2018-03-01T01:10:15.868Z,21.00
2018-03-01T01:12:44.445Z,22.97
2018-03-01T01:15:12.902Z,21.97
2018-03-01T01:17:41.281Z,28.27
2018-03-01T01:20:10.233Z,22.93
2018-03-01T01:22:38.722Z,25.03
2018-03-01T01:25:07.373Z,21.80
2018-03-01T01:27:35.877Z,26.70
2018-03-01T01:30:04.396Z,24.60
2018-03-01T01:32:32.786Z,26.20
2018-03-01T01:35:01.157Z,23.40
2018-03-01T01:37:29.628Z,27.97
2018-03-01T01:39:58.162Z,24.40
2018-03-01T01:42:27.308Z,25.80
2018-03-01T01:44:55.825Z,27.93
2018-03-01T01:47:24.320Z,23.00
2018-03-01T01:49:53.469Z,24.73
2018-03-01T01:52:21.843Z,24.80
2018-03-01T01:54:50.229Z,23.47
2018-03-01T01:57:18.599Z,22.47
2018-03-01T01:59:47.011Z,25.67
2018-03-01T02:02:15.391Z,29.73
2018-03-01T02:04:44.812Z,25.23
2018-03-01T02:07:14.126Z,26.40
2018-03-01T02:09:42.499Z,24.87
2018-03-01T02:12:10.937Z,24.83
2018-03-01T02:14:39.458Z,22.50
2018-03-01T02:17:08.706Z,20.70
2018-03-01T02:19:37.260Z,24.53
2018-03-01T02:22:05.639Z,26.20
2018-03-01T02:24:34.109Z,24.33
2018-03-01T02:27:02.661Z,24.03
2018-03-01T02:29:32.103Z,25.47
2018-03-01T02:32:00.507Z,21.47
2018-03-01T02:34:28.534Z,27.53
2018-03-01T02:36:56.953Z,23.60
2018-03-01T02:39:25.518Z,24.20
2018-03-01T02:41:54.096Z,25.03
2018-03-01T02:44:22.635Z,22.87
2018-03-01T02:46:51.809Z,21.50
2018-03-01T02:49:20.219Z,23.23
2018-03-01T02:51:49.376Z,20.80
2018-03-01T02:54:17.839Z,22.60
2018-03-01T02:56:46.373Z,22.30
2018-03-01T02:59:15.511Z,23.10
2018-03-01T03:01:45.317Z,21.77
2018-03-01T03:04:13.698Z,20.23
2018-03-01T03:06:42.063Z,23.10
2018-03-01T03:09:10.598Z,20.83
2018-03-01T03:11:39.731Z,20.90
2018-03-01T03:14:08.311Z,22.60
2018-03-01T03:16:37.451Z,21.93
2018-03-01T03:19:05.823Z,24.60
2018-03-01T03:21:34.239Z,21.40
2018-03-01T03:24:02.635Z,27.13
2018-03-01T03:26:31.783Z,22.10
2018-03-01T03:29:00.204Z,23.87
2018-03-01T03:31:29.456Z,21.10
2018-03-01T03:33:57.849Z,19.57
2018-03-01T03:36:26.218Z,23.37
2018-03-01T03:38:54.587Z,22.90
2018-03-01T03:41:22.984Z,20.30
2018-03-01T03:43:51.359Z,25.57
2018-03-01T03:46:19.884Z,22.73
2018-03-01T03:48:48.407Z,28.93
2018-03-01T03:51:16.940Z,24.13
2018-03-01T03:53:46.285Z,22.40
2018-03-01T03:56:14.751Z,22.43
2018-03-01T03:58:43.101Z,26.47
2018-03-01T04:01:12.248Z,22.70
2018-03-01T04:03:40.784Z,21.77
2018-03-01T04:06:09.316Z,25.43
2018-03-01T04:08:37.678Z,21.43
2018-03-01T04:11:06.066Z,22.87
2018-03-01T04:13:34.479Z,23.43
2018-03-01T04:16:04.233Z,21.40
2018-03-01T04:18:32.633Z,24.73
2018-03-01T04:21:01.348Z,25.53
2018-03-01T04:23:29.753Z,22.10
2018-03-01T04:25:58.928Z,22.93
2018-03-01T04:28:27.336Z,33.00
2018-03-01T04:30:55.703Z,25.20
2018-03-01T04:33:24.669Z,21.10
2018-03-01T04:35:53.188Z,23.13
2018-03-01T04:38:21.562Z,20.07
2018-03-01T04:40:50.717Z,24.13
2018-03-01T04:43:19.344Z,20.27
2018-03-01T04:45:47.698Z,21.50
2018-03-01T04:48:16.079Z,21.13
2018-03-01T04:50:45.374Z,24.00
2018-03-01T04:53:13.754Z,25.10
2018-03-01T04:55:42.159Z,21.60
2018-03-01T04:58:10.700Z,22.20
2018-03-01T05:00:39.228Z,20.90
2018-03-01T05:03:07.774Z,25.40
2018-03-01T05:05:36.160Z,25.47
2018-03-01T05:08:05.626Z,23.40
2018-03-01T05:10:34.139Z,25.03
2018-03-01T05:13:03.497Z,30.63
2018-03-01T05:15:31.918Z,20.93
2018-03-01T05:18:01.233Z,21.93
2018-03-01T05:20:30.476Z,22.70
2018-03-01T05:22:58.879Z,25.13
2018-03-01T05:25:27.284Z,22.77
2018-03-01T05:27:56.456Z,23.00
2018-03-01T05:30:25.038Z,22.23
2018-03-01T05:32:53.506Z,24.07
2018-03-01T05:35:21.897Z,25.73
2018-03-01T05:37:50.272Z,20.27
2018-03-01T05:40:18.650Z,23.07
2018-03-01T05:42:47.219Z,19.20
2018-03-01T05:45:15.678Z,25.30
2018-03-01T05:47:48.086Z,25.03
2018-03-01T05:50:16.468Z,25.87
2018-03-01T05:52:45.001Z,21.57
2018-03-01T05:55:13.363Z,23.37
2018-03-01T05:57:42.537Z,25.47
2018-03-01T06:00:12.010Z,27.63
2018-03-01T06:02:40.391Z,25.40
2018-03-01T06:05:08.897Z,25.70
2018-03-01T06:07:37.277Z,21.20
2018-03-01T06:10:05.676Z,20.50
2018-03-01T06:12:35.696Z,25.63
2018-03-01T06:15:04.881Z,25.57
2018-03-01T06:17:34.048Z,23.40
2018-03-01T06:20:02.576Z,24.70
2018-03-01T06:22:31.098Z,23.07
2018-03-01T06:24:59.656Z,24.70
2018-03-01T06:27:28.042Z,21.20
2018-03-01T06:29:56.561Z,28.97
2018-03-01T06:32:24.944Z,23.23
2018-03-01T06:34:53.499Z,22.97
2018-03-01T06:37:21.864Z,20.07
2018-03-01T06:39:50.234Z,23.57
2018-03-01T06:42:18.775Z,26.03
2018-03-01T06:44:47.943Z,17.97
2018-03-01T06:47:16.357Z,23.37
2018-03-01T06:49:45.487Z,22.67
2018-03-01T06:52:13.855Z,20.43
2018-03-01T06:54:42.390Z,19.60
2018-03-01T06:57:11.329Z,28.53
2018-03-01T06:59:39.715Z,19.43
2018-03-01T07:02:08.067Z,18.93
2018-03-01T07:04:36.465Z,19.20
2018-03-01T07:07:04.828Z,26.37
2018-03-01T07:09:33.960Z,21.53
2018-03-01T07:12:02.153Z,23.70
2018-03-01T07:14:31.311Z,23.30
2018-03-01T07:16:59.787Z,24.70
2018-03-01T07:19:28.192Z,20.87
2018-03-01T07:21:56.892Z,22.63
2018-03-01T07:24:25.251Z,23.90
2018-03-01T07:26:53.642Z,22.40
2018-03-01T07:29:22.096Z,26.03
2018-03-01T07:31:50.553Z,30.57
2018-03-01T07:34:19.682Z,23.47
2018-03-01T07:36:48.058Z,22.60
2018-03-01T07:39:16.428Z,22.10
2018-03-01T07:41:44.797Z,20.47
2018-03-01T07:44:13.156Z,23.60
2018-03-01T07:46:42.292Z,19.00
2018-03-01T07:49:10.673Z,23.60
2018-03-01T07:51:39.048Z,22.13
2018-03-01T07:54:07.410Z,22.43
2018-03-01T07:56:39.457Z,16.90
2018-03-01T07:59:07.804Z,26.20
2018-03-01T08:01:36.174Z,24.37
2018-03-01T08:04:04.631Z,20.67
2018-03-01T08:06:33.590Z,26.63
2018-03-01T08:09:01.967Z,21.10
2018-03-01T08:11:30.324Z,20.97
2018-03-01T08:13:59.473Z,22.40
2018-03-01T08:16:27.899Z,18.70
2018-03-01T08:18:57.070Z,21.67
2018-03-01T08:21:25.416Z,21.53
2018-03-01T08:23:53.879Z,21.73
2018-03-01T08:26:22.378Z,22.47
2018-03-01T08:28:50.921Z,17.93
2018-03-01T08:31:20.137Z,26.00
2018-03-01T08:33:48.670Z,21.67
2018-03-01T08:36:17.086Z,20.53
2018-03-01T08:38:45.483Z,23.03
2018-03-01T08:41:15.003Z,22.33
2018-03-01T08:43:43.384Z,21.40
2018-03-01T08:46:11.926Z,20.70
2018-03-01T08:48:41.058Z,22.00
2018-03-01T08:51:09.437Z,21.80
2018-03-01T08:53:37.825Z,21.83
2018-03-01T08:56:06.445Z,17.50
2018-03-01T08:58:34.935Z,19.47
2018-03-01T09:01:04.082Z,20.87
2018-03-01T09:03:32.643Z,20.03
2018-03-01T09:06:01.035Z,18.47
2018-03-01T09:08:29.408Z,24.03
2018-03-01T09:10:57.795Z,22.43
2018-03-01T09:13:26.312Z,20.90
2018-03-01T09:15:55.822Z,19.60
2018-03-01T09:18:24.317Z,16.50
2018-03-01T09:20:53.322Z,22.90
2018-03-01T09:23:21.751Z,17.70
2018-03-01T09:25:50.131Z,18.13
2018-03-01T09:28:18.524Z,23.97
2018-03-01T09:30:47.103Z,17.40
2018-03-01T09:33:15.579Z,15.00
2018-03-01T09:35:43.949Z,27.60
2018-03-01T09:38:12.535Z,20.93
2018-03-01T09:40:40.996Z,16.70
2018-03-01T09:43:09.435Z,17.03
2018-03-01T09:45:37.799Z,16.83
2018-03-01T09:48:07.170Z,18.13
2018-03-01T09:50:35.582Z,17.60
2018-03-01T09:53:04.103Z,16.13
2018-03-01T09:55:32.484Z,14.30
2018-03-01T09:58:00.900Z,20.33
2018-03-01T10:00:29.419Z,16.93
2018-03-01T10:02:57.783Z,21.27
2018-03-01T10:05:27.132Z,19.20
2018-03-01T10:07:55.630Z,18.63
2018-03-01T10:10:24.019Z,20.60
2018-03-01T10:12:53.149Z,22.40
2018-03-01T10:15:21.540Z,14.13
2018-03-01T10:17:49.884Z,15.33
2018-03-01T10:20:19.020Z,14.47
2018-03-01T10:22:50.395Z,15.53
2018-03-01T10:25:18.953Z,13.97
2018-03-01T10:27:47.335Z,17.73
2018-03-01T10:30:15.708Z,15.10
2018-03-01T10:32:44.052Z,14.73
2018-03-01T10:35:13.201Z,14.80
2018-03-01T10:37:41.575Z,16.23
2018-03-01T10:40:09.943Z,13.77
2018-03-01T10:42:38.279Z,14.77
2018-03-01T10:45:07.409Z,13.43
2018-03-01T10:47:35.785Z,12.00
2018-03-01T10:50:04.156Z,16.03
2018-03-01T10:52:32.501Z,15.70
2018-03-01T10:55:01.672Z,14.30
2018-03-01T10:57:30.029Z,16.50
2018-03-01T10:59:58.456Z,16.77
2018-03-01T11:02:27.799Z,14.20
2018-03-01T11:04:56.180Z,14.33
2018-03-01T11:07:24.708Z,15.00
2018-03-01T11:09:52.885Z,13.67
2018-03-01T11:12:22.029Z,14.00
2018-03-01T11:14:50.391Z,16.80
2018-03-01T11:17:18.898Z,15.40
2018-03-01T11:19:47.199Z,14.40
2018-03-01T11:22:15.507Z,14.67
2018-03-01T11:24:44.624Z,14.23
2018-03-01T11:27:12.971Z,16.80
2018-03-01T11:29:42.104Z,15.80
2018-03-01T11:32:10.609Z,13.17
2018-03-01T11:34:38.967Z,17.77
2018-03-01T11:37:07.156Z,18.53
2018-03-01T11:39:35.527Z,14.07
2018-03-01T11:42:03.899Z,13.67
2018-03-01T11:44:32.280Z,15.63
2018-03-01T11:47:00.678Z,15.23
2018-03-01T11:49:29.046Z,17.80
2018-03-01T11:51:57.447Z,14.20
2018-03-01T11:54:25.817Z,16.43
2018-03-01T11:56:54.163Z,15.53
2018-03-01T11:59:22.881Z,14.80
2018-03-01T12:01:51.360Z,16.50
2018-03-01T12:04:19.734Z,14.80
2018-03-01T12:06:48.488Z,17.23
2018-03-01T12:09:17.136Z,16.20
2018-03-01T12:11:46.404Z,17.30
2018-03-01T12:14:15.567Z,15.17
2018-03-01T12:16:43.922Z,16.83
2018-03-01T12:19:13.244Z,14.20
2018-03-01T12:21:41.594Z,16.80
2018-03-01T12:24:10.924Z,16.37
2018-03-01T12:26:39.295Z,21.47
2018-03-01T12:29:07.682Z,18.13
2018-03-01T12:31:36.063Z,19.20
2018-03-01T12:34:04.533Z,16.03
2018-03-01T12:36:32.895Z,17.33
2018-03-01T12:39:01.266Z,15.10
2018-03-01T12:41:30.414Z,13.40
2018-03-01T12:43:58.868Z,14.60
2018-03-01T12:46:27.232Z,16.70
2018-03-01T12:48:55.580Z,14.03
2018-03-01T12:51:23.775Z,13.57
2018-03-01T12:53:53.334Z,14.10
2018-03-01T12:56:21.536Z,19.07
2018-03-01T12:58:50.493Z,19.83
2018-03-01T13:01:18.687Z,16.90
2018-03-01T13:03:46.842Z,15.50
2018-03-01T13:06:15.348Z,15.73
2018-03-01T13:08:43.576Z,13.60
2018-03-01T13:11:11.753Z,15.50
2018-03-01T13:13:39.913Z,14.83
2018-03-01T13:16:08.110Z,15.07
2018-03-01T13:18:36.297Z,15.07
2018-03-01T13:21:05.159Z,15.37
2018-03-01T13:23:33.336Z,13.70
2018-03-01T13:26:01.610Z,13.00
2018-03-01T13:28:29.811Z,18.00
2018-03-01T13:31:00.914Z,16.60
2018-03-01T13:33:40.971Z,14.60
2018-03-01T13:36:09.183Z,13.10
2018-03-01T13:38:37.385Z,19.40
2018-03-01T13:41:06.518Z,13.60
2018-03-01T13:43:34.699Z,14.60
2018-03-01T13:46:02.969Z,12.33
2018-03-01T13:48:31.176Z,17.30
2018-03-01T13:50:59.870Z,21.40
2018-03-01T13:53:28.846Z,22.00
2018-03-01T13:55:57.000Z,18.73
2018-03-01T13:58:25.202Z,15.03
2018-03-01T14:00:53.406Z,20.23
2018-03-01T14:03:22.340Z,13.60
2018-03-01T14:06:03.550Z,15.50
2018-03-01T14:08:31.757Z,15.43
2018-03-01T14:11:00.138Z,18.43
2018-03-01T14:13:30.030Z,14.50
2018-03-01T14:15:59.166Z,14.53
2018-03-01T14:18:43.322Z,18.20
2018-03-01T14:21:15.194Z,16.83
2018-03-01T14:23:44.338Z,13.73
2018-03-01T14:26:13.332Z,16.10
2018-03-01T14:28:43.345Z,13.97
2018-03-01T14:31:12.352Z,13.17
2018-03-01T14:33:40.861Z,15.53
2018-03-01T14:36:09.227Z,14.17
2018-03-01T14:38:37.621Z,13.07
2018-03-01T14:41:05.994Z,19.90
2018-03-01T14:43:34.626Z,14.13
2018-03-01T14:46:02.990Z,14.63
2018-03-01T14:48:31.353Z,24.47
2018-03-01T14:50:59.707Z,13.80
2018-03-01T14:53:28.078Z,18.50
2018-03-01T14:55:56.258Z,16.30
2018-03-01T14:58:24.641Z,14.57
2018-03-01T15:00:53.188Z,13.57
2018-03-01T15:03:22.336Z,18.33
2018-03-01T15:05:50.692Z,15.90
2018-03-01T15:08:19.078Z,22.03
2018-03-01T15:10:47.867Z,14.90
2018-03-01T15:13:16.258Z,21.33
2018-03-01T15:15:44.716Z,25.30
2018-03-01T15:18:14.887Z,15.70
2018-03-01T15:20:43.247Z,17.43
2018-03-01T15:23:11.643Z,15.03
2018-03-01T15:25:40.009Z,14.87
2018-03-01T15:28:08.392Z,16.23
2018-03-01T15:30:37.037Z,15.70
2018-03-01T15:33:05.516Z,14.60
2018-03-01T15:35:33.878Z,18.43
2018-03-01T15:38:02.819Z,17.50
2018-03-01T15:40:31.190Z,15.70
2018-03-01T15:42:59.535Z,15.23
2018-03-01T15:45:28.059Z,18.60
2018-03-01T15:47:56.465Z,18.33
2018-03-01T15:50:25.022Z,21.57
2018-03-01T15:52:53.495Z,20.00
2018-03-01T15:55:22.703Z,16.47
2018-03-01T15:57:51.260Z,13.90
2018-03-01T16:00:19.638Z,17.77
2018-03-01T16:02:48.019Z,18.97
2018-03-01T16:05:16.371Z,15.70
2018-03-01T16:07:44.990Z,17.67
2018-03-01T16:10:13.384Z,21.33
2018-03-01T16:12:42.596Z,18.80
2018-03-01T16:15:12.056Z,15.50
2018-03-01T16:17:40.574Z,19.40
2018-03-01T16:20:09.703Z,18.30
2018-03-01T16:22:38.075Z,17.53
2018-03-01T16:25:07.261Z,17.83
2018-03-01T16:27:36.416Z,17.30
2018-03-01T16:30:04.443Z,21.13
2018-03-01T16:32:32.961Z,16.77
2018-03-01T16:35:01.416Z,18.20
2018-03-01T16:37:29.656Z,20.23
2018-03-01T16:39:59.048Z,20.83
2018-03-01T16:45:02.281Z,20.63
2018-03-01T16:47:30.709Z,17.90
2018-03-01T16:49:59.176Z,18.97
2018-03-01T16:52:28.264Z,20.87
2018-03-01T16:54:56.677Z,19.97
2018-03-01T16:57:25.234Z,18.80
2018-03-01T16:59:53.748Z,21.13
2018-03-01T17:02:22.878Z,20.63
2018-03-01T17:04:51.278Z,20.70
2018-03-01T17:07:20.581Z,20.80
2018-03-01T17:09:48.952Z,21.30
2018-03-01T17:12:17.341Z,24.37
2018-03-01T17:14:45.713Z,18.90
2018-03-01T17:17:14.100Z,18.47
2018-03-01T17:19:42.627Z,20.00
2018-03-01T17:22:11.837Z,20.10
2018-03-01T17:24:41.178Z,17.77
2018-03-01T17:27:09.752Z,21.90
2018-03-01T17:29:38.104Z,23.27
2018-03-01T17:32:07.114Z,21.80
2018-03-01T17:34:35.789Z,19.20
2018-03-01T17:37:03.964Z,20.60
2018-03-01T17:39:32.322Z,20.87
2018-03-01T17:42:01.443Z,19.40
2018-03-01T17:44:29.823Z,22.00
2018-03-01T17:46:58.193Z,19.90
2018-03-01T17:49:26.541Z,19.10
2018-03-01T17:51:55.673Z,19.47
2018-03-01T17:54:23.858Z,22.60
2018-03-01T17:56:52.429Z,18.13
2018-03-01T17:59:21.626Z,17.43
2018-03-01T18:01:49.879Z,20.83
2018-03-01T18:04:19.040Z,23.30
2018-03-01T18:06:47.440Z,24.17
2018-03-01T18:09:16.576Z,22.17
2018-03-01T18:11:44.962Z,18.67
2018-03-01T18:14:13.267Z,22.90
2018-03-01T18:16:41.646Z,19.37
2018-03-01T18:19:09.933Z,22.53
2018-03-01T18:21:38.492Z,25.47
2018-03-01T18:24:06.865Z,20.23
2018-03-01T18:26:35.085Z,22.30
2018-03-01T18:29:04.291Z,22.23
2018-03-01T18:31:33.410Z,20.63
2018-03-01T18:34:01.837Z,24.60
2018-03-01T18:36:30.999Z,26.13
2018-03-01T18:38:59.843Z,19.90
2018-03-01T18:41:29.018Z,21.57
2018-03-01T18:43:57.417Z,26.57
2018-03-01T18:46:26.752Z,22.93
2018-03-01T18:48:55.284Z,23.73
2018-03-01T18:51:23.668Z,25.27
2018-03-01T18:53:52.827Z,26.93
2018-03-01T18:56:21.226Z,28.43
2018-03-01T18:58:49.741Z,23.47
2018-03-01T19:01:18.868Z,30.57
2018-03-01T19:03:47.275Z,23.70
2018-03-01T19:06:15.639Z,21.50
2018-03-01T19:08:44.155Z,29.67
2018-03-01T19:11:13.365Z,23.97
2018-03-01T19:13:42.493Z,21.97
2018-03-01T19:16:11.336Z,26.90
2018-03-01T19:18:40.496Z,25.20
2018-03-01T19:21:08.894Z,28.10
2018-03-01T19:23:37.504Z,29.13
2018-03-01T19:26:06.650Z,25.23
2018-03-01T19:28:35.056Z,21.83
2018-03-01T19:31:03.444Z,26.57
2018-03-01T19:33:31.793Z,25.70
2018-03-01T19:36:00.195Z,25.47
2018-03-01T19:38:28.584Z,28.13
2018-03-01T19:40:57.173Z,23.77
2018-03-01T19:43:26.356Z,27.60
2018-03-01T19:45:54.757Z,21.60
2018-03-01T19:50:03.515Z,29.00
2018-03-01T19:52:30.111Z,28.80
2018-03-01T19:54:56.734Z,25.80
2018-03-01T19:57:23.435Z,31.00
2018-03-01T19:59:50.068Z,25.87
2018-03-01T20:02:16.629Z,25.43
2018-03-01T20:04:42.959Z,22.70
2018-03-01T20:07:16.137Z,25.13
2018-03-01T20:09:49.663Z,24.40
2018-03-01T20:12:22.895Z,24.87
2018-03-01T20:14:55.520Z,25.93
2018-03-01T20:17:27.950Z,29.70
2018-03-01T20:20:00.327Z,24.57
2018-03-01T20:22:32.797Z,28.03
2018-03-01T20:25:05.443Z,24.10
2018-03-01T20:27:37.955Z,27.40
2018-03-01T20:30:11.158Z,25.93
2018-03-01T20:32:43.858Z,25.03
2018-03-01T20:35:16.288Z,30.63
2018-03-01T20:37:48.626Z,28.20
2018-03-01T20:40:21.702Z,27.97
2018-03-01T20:42:54.272Z,30.33
2018-03-01T20:45:27.051Z,25.57
2018-03-01T20:47:59.618Z,24.33
2018-03-01T20:50:32.172Z,26.37
2018-03-01T20:53:04.752Z,25.20
2018-03-01T20:55:37.349Z,25.57
2018-03-01T20:58:09.942Z,24.83
2018-03-01T21:00:42.439Z,35.20
2018-03-01T21:03:15.159Z,29.00
2018-03-01T21:05:47.849Z,28.10
2018-03-01T21:08:20.212Z,26.53
2018-03-01T21:10:53.049Z,26.03
2018-03-01T21:13:25.408Z,30.60
2018-03-01T21:15:57.822Z,25.27
2018-03-01T21:18:30.314Z,30.70
2018-03-01T21:21:02.918Z,35.50
2018-03-01T21:23:35.504Z,23.57
2018-03-01T21:26:08.129Z,26.40
2018-03-01T21:28:40.536Z,25.03
2018-03-01T21:31:13.165Z,29.47
2018-03-01T21:33:45.559Z,24.83
2018-03-01T21:36:18.045Z,28.37
2018-03-01T21:38:50.442Z,29.80
2018-03-01T21:41:23.096Z,29.17
2018-03-01T21:43:55.608Z,25.80
2018-03-01T21:46:28.282Z,29.33
2018-03-01T21:49:01.003Z,27.57
2018-03-01T21:51:33.555Z,31.40
2018-03-01T21:54:06.613Z,30.30
2018-03-01T21:56:39.834Z,32.97
2018-03-01T21:59:12.339Z,26.80
2018-03-01T22:01:44.714Z,34.13
2018-03-01T22:04:17.583Z,28.03
2018-03-01T22:06:43.973Z,26.00
2018-03-01T22:09:16.612Z,29.77
2018-03-01T22:11:49.430Z,30.17
2018-03-01T22:14:21.816Z,26.83
2018-03-01T22:16:54.225Z,31.40
2018-03-01T22:19:26.658Z,31.87
2018-03-01T22:21:59.246Z,26.37
2018-03-01T22:24:31.617Z,26.20
2018-03-01T22:27:04.093Z,25.13
2018-03-01T22:29:36.527Z,24.87
2018-03-01T22:32:09.196Z,31.30
2018-03-01T22:34:41.864Z,35.27
2018-03-01T22:37:08.404Z,28.13
2018-03-01T22:39:41.747Z,29.43
2018-03-01T22:42:14.115Z,31.67
2018-03-01T22:44:46.750Z,26.73
2018-03-01T22:47:19.464Z,29.53
2018-03-01T22:49:52.683Z,29.50
2018-03-01T22:52:25.125Z,27.80
2018-03-01T22:54:59.796Z,24.33
2018-03-01T22:57:32.964Z,26.13
2018-03-01T23:00:05.432Z,24.67
2018-03-01T23:02:37.868Z,27.67
2018-03-01T23:05:10.286Z,25.80
2018-03-01T23:07:42.883Z,31.10
2018-03-01T23:10:15.459Z,25.90
2018-03-01T23:12:48.010Z,35.83
2018-03-01T23:15:20.544Z,26.13
2018-03-01T23:17:53.237Z,28.90
2018-03-01T23:20:25.796Z,25.70
2018-03-01T23:22:59.070Z,22.60
2018-03-01T23:25:31.840Z,27.50
2018-03-01T23:28:04.276Z,28.10
2018-03-01T23:30:37.658Z,30.93
2018-03-01T23:33:10.213Z,30.83
2018-03-01T23:35:42.763Z,30.80
2018-03-01T23:38:09.394Z,30.60
2018-03-01T23:40:41.999Z,33.83
2018-03-01T23:43:14.393Z,30.97
2018-03-01T23:45:46.905Z,30.50
2018-03-01T23:48:19.516Z,30.70
2018-03-01T23:50:52.256Z,28.30
2018-03-01T23:53:24.773Z,30.93
2018-03-01T23:55:57.410Z,29.03
2018-03-01T23:58:29.907Z,33.50
